createdAt,value
2019-04-29T05:13:30.588Z,16.05
2019-04-29T05:15:59.430Z,16.60
2019-04-29T05:18:28.145Z,15.83
2019-04-29T05:20:56.919Z,14.80
2019-04-29T05:23:25.849Z,15.50
2019-04-29T05:25:54.706Z,14.03
2019-04-29T05:28:23.843Z,13.33
2019-04-29T05:30:53.018Z,14.53
2019-04-29T05:33:21.777Z,12.77
2019-04-29T05:36:54.316Z,14.63
2019-04-29T05:39:28.353Z,13.60
2019-04-29T05:41:57.354Z,13.93
2019-04-29T05:45:01.992Z,14.70
2019-04-29T05:47:35.781Z,13.77
2019-04-29T05:50:11.821Z,13.10
2019-04-29T05:52:49.739Z,12.60
2019-04-29T05:55:15.441Z,9.10
2019-04-29T05:57:44.062Z,13.33
2019-04-29T06:00:12.883Z,11.70
2019-04-29T06:02:41.734Z,12.93
2019-04-29T06:05:10.577Z,12.50
2019-04-29T06:07:39.339Z,13.13
2019-04-29T06:10:08.161Z,12.23
2019-04-29T06:12:36.927Z,12.20
2019-04-29T06:15:05.684Z,10.93
2019-04-29T06:17:34.928Z,12.63
2019-04-29T06:20:03.700Z,11.40
2019-04-29T06:22:32.554Z,6.50
2019-04-29T06:25:01.423Z,8.60
2019-04-29T06:27:31.855Z,12.10
2019-04-29T06:30:03.153Z,10.17
2019-04-29T06:32:27.506Z,11.80
2019-04-29T06:34:56.362Z,11.50
2019-04-29T06:37:25.204Z,11.60
2019-04-29T06:39:54.071Z,11.67
2019-04-29T06:42:23.169Z,10.63
2019-04-29T06:44:51.659Z,10.97
2019-04-29T06:47:20.518Z,11.00
2019-04-29T06:49:49.253Z,11.23
2019-04-29T06:52:18.357Z,11.90
2019-04-29T06:54:46.647Z,12.40
2019-04-29T06:57:14.900Z,12.00
2019-04-29T06:59:47.524Z,12.30
2019-04-29T07:02:14.273Z,12.27
2019-04-29T07:04:40.681Z,13.17
2019-04-29T07:07:09.595Z,12.20
2019-04-29T07:09:38.726Z,12.53
2019-04-29T07:12:08.139Z,14.30
2019-04-29T07:14:38.559Z,8.40
2019-04-29T07:17:05.699Z,1.37
2019-04-29T07:19:33.843Z,1.20
2019-04-29T07:22:02.839Z,2.37
2019-04-29T07:24:31.569Z,1.27
2019-04-29T07:27:03.076Z,1.93
2019-04-29T07:29:32.319Z,1.23
2019-04-29T07:31:58.050Z,1.13
2019-04-29T07:34:28.987Z,1.40
2019-04-29T07:36:57.677Z,0.90
2019-04-29T07:39:26.719Z,1.03
2019-04-29T07:41:53.696Z,1.47
2019-04-29T07:44:20.805Z,2.23
2019-04-29T07:46:56.754Z,2.47
2019-04-29T07:49:20.256Z,15.23
2019-04-29T07:51:49.138Z,5.10
2019-04-29T07:54:18.246Z,6.17
2019-04-29T07:56:47.157Z,3.73
2019-04-29T07:59:16.254Z,9.57
2019-04-29T08:01:44.983Z,5.07
2019-04-29T08:04:13.467Z,5.33
2019-04-29T08:06:42.972Z,4.63
2019-04-29T08:09:10.427Z,5.83
2019-04-29T08:11:39.175Z,5.47
2019-04-29T08:14:07.686Z,7.80
2019-04-29T08:16:36.174Z,5.03
2019-04-29T08:19:05.109Z,7.87
2019-04-29T08:21:33.510Z,13.23
2019-04-29T08:24:02.251Z,7.33
2019-04-29T08:26:33.728Z,11.47
2019-04-29T08:29:00.704Z,11.97
2019-04-29T08:31:28.359Z,9.57
2019-04-29T08:33:56.842Z,10.87
2019-04-29T08:36:25.910Z,10.27
2019-04-29T08:39:07.618Z,6.57
2019-04-29T08:41:28.589Z,4.53
2019-04-29T08:46:03.552Z,6.27
2019-04-29T08:48:32.264Z,6.50
2019-04-29T08:51:00.758Z,5.30
2019-04-29T08:53:29.270Z,4.60
2019-04-29T08:55:57.885Z,5.07
2019-04-29T08:58:26.403Z,5.30
2019-04-29T09:00:55.918Z,5.50
2019-04-29T09:03:24.465Z,3.63
2019-04-29T09:06:05.172Z,7.17
2019-04-29T09:08:21.708Z,10.67
2019-04-29T09:10:50.478Z,4.97
2019-04-29T09:13:18.766Z,3.73
2019-04-29T09:15:47.565Z,4.80
2019-04-29T09:18:16.051Z,4.20
2019-04-29T09:20:44.798Z,6.67
2019-04-29T09:23:14.306Z,2.90
2019-04-29T09:26:01.943Z,12.57
2019-04-29T09:28:27.147Z,2.47
2019-04-29T09:30:48.681Z,3.07
2019-04-29T09:33:17.801Z,5.63
2019-04-29T09:35:46.643Z,7.80
2019-04-29T09:38:15.761Z,4.43
2019-04-29T09:40:48.773Z,11.47
2019-04-29T09:43:25.825Z,3.37
2019-04-29T09:45:58.788Z,11.13
2019-04-29T09:48:24.674Z,12.93
2019-04-29T09:50:53.295Z,14.07
2019-04-29T09:53:21.931Z,13.67
2019-04-29T09:55:51.169Z,2.10
2019-04-29T09:58:19.974Z,1.97
2019-04-29T10:01:09.348Z,10.50
2019-04-29T10:04:56.529Z,6.20
2019-04-29T10:07:16.231Z,11.70
2019-04-29T10:09:56.529Z,13.23
2019-04-29T10:12:14.505Z,11.27
2019-04-29T10:14:43.326Z,11.57
2019-04-29T10:17:20.414Z,4.03
2019-04-29T10:19:53.317Z,11.20
2019-04-29T10:22:22.201Z,6.03
2019-04-29T10:24:50.946Z,11.20
2019-04-29T10:27:19.442Z,12.93
2019-04-29T10:29:50.812Z,11.30
2019-04-29T10:32:18.074Z,4.47
2019-04-29T10:34:46.544Z,7.60
2019-04-29T10:37:15.705Z,7.63
2019-04-29T10:39:49.287Z,6.43
2019-04-29T10:42:23.035Z,2.90
2019-04-29T10:44:57.649Z,9.50
2019-04-29T10:48:30.707Z,8.13
2019-04-29T10:50:59.441Z,9.73
2019-04-29T10:53:28.969Z,9.77
2019-04-29T10:56:00.859Z,11.20
2019-04-29T10:58:30.220Z,10.87
2019-04-29T11:03:02.630Z,7.07
2019-04-29T11:05:32.566Z,11.67
2019-04-29T11:09:09.653Z,9.37
2019-04-29T11:11:36.158Z,10.63
2019-04-29T11:14:04.660Z,14.73
2019-04-29T11:16:46.098Z,10.53
2019-04-29T11:19:05.438Z,11.93
2019-04-29T11:21:31.697Z,13.93
2019-04-29T11:24:04.986Z,10.63
2019-04-29T11:26:39.843Z,12.60
2019-04-29T11:29:09.429Z,12.97
2019-04-29T11:31:36.874Z,7.07
2019-04-29T11:34:11.500Z,12.83
2019-04-29T11:36:44.042Z,8.53
2019-04-29T11:39:13.365Z,7.00
2019-04-29T11:41:38.090Z,10.87
2019-04-29T11:44:06.580Z,9.13
2019-04-29T11:46:35.390Z,9.27
2019-04-29T11:49:04.132Z,10.63
2019-04-29T11:51:55.887Z,9.00
2019-04-29T11:54:08.184Z,7.67
2019-04-29T11:56:34.104Z,9.70
2019-04-29T11:59:25.395Z,9.93
2019-04-29T12:01:59.788Z,8.30
2019-04-29T12:04:33.798Z,7.77
2019-04-29T12:07:01.905Z,8.80
2019-04-29T12:09:32.146Z,9.30
2019-04-29T12:11:59.233Z,4.23
2019-04-29T12:14:38.008Z,8.77
2019-04-29T12:17:18.302Z,7.83
2019-04-29T12:19:47.279Z,9.00
2019-04-29T12:22:28.316Z,8.60
2019-04-29T12:24:44.873Z,7.77
2019-04-29T12:27:14.788Z,9.53
2019-04-29T12:29:42.106Z,9.23
2019-04-29T12:32:16.415Z,8.53
2019-04-29T12:34:49.178Z,8.17
2019-04-29T12:37:25.609Z,8.03
2019-04-29T12:39:59.634Z,7.93
2019-04-29T12:43:05.427Z,8.30
2019-04-29T12:45:38.187Z,4.87
2019-04-29T12:48:06.922Z,7.10
2019-04-29T12:50:36.034Z,7.83
2019-04-29T12:53:04.528Z,6.23
2019-04-29T12:55:45.063Z,6.93
2019-04-29T12:58:05.997Z,6.53
2019-04-29T13:00:46.928Z,6.37
2019-04-29T13:03:10.998Z,6.27
2019-04-29T13:05:57.541Z,6.43
2019-04-29T13:08:18.255Z,2.70
2019-04-29T13:10:50.427Z,3.17
2019-04-29T13:13:20.026Z,6.00
2019-04-29T13:15:54.870Z,5.33
2019-04-29T13:18:28.610Z,6.83
2019-04-29T13:21:09.544Z,6.33
2019-04-29T13:23:36.029Z,7.17
2019-04-29T13:25:55.939Z,8.70
2019-04-29T13:28:30.277Z,7.20
2019-04-29T13:30:56.736Z,4.60
2019-04-29T13:33:21.354Z,5.87
2019-04-29T13:35:50.215Z,4.17
2019-04-29T13:38:18.701Z,4.77
2019-04-29T13:40:47.520Z,5.30
2019-04-29T13:43:16.253Z,4.43
2019-04-29T13:45:49.713Z,4.43
2019-04-29T13:48:27.429Z,6.00
2019-04-29T13:51:01.165Z,3.80
2019-04-29T13:53:29.791Z,5.67
2019-04-29T13:56:11.001Z,4.67
2019-04-29T13:58:29.228Z,4.60
2019-04-29T14:01:01.815Z,5.23
2019-04-29T14:03:33.023Z,3.77
2019-04-29T14:06:04.316Z,3.27
2019-04-29T14:08:30.593Z,4.23
2019-04-29T14:10:58.901Z,3.40
2019-04-29T14:13:27.145Z,4.47
2019-04-29T14:15:55.962Z,4.07
2019-04-29T14:18:24.360Z,4.00
2019-04-29T14:20:53.158Z,1.83
2019-04-29T14:23:21.330Z,1.70
2019-04-29T14:25:49.811Z,3.40
2019-04-29T14:28:18.645Z,1.90
2019-04-29T14:30:49.138Z,1.67
2019-04-29T14:33:19.176Z,1.37
2019-04-29T14:35:49.932Z,1.20
2019-04-29T14:38:18.046Z,2.20
2019-04-29T14:40:46.906Z,1.40
2019-04-29T14:43:28.832Z,1.00
2019-04-29T14:46:29.251Z,1.70
2019-04-29T14:49:06.231Z,1.47
2019-04-29T14:51:36.672Z,1.83
2019-04-29T14:54:07.350Z,1.30
2019-04-29T14:56:31.159Z,2.30
2019-04-29T14:59:06.484Z,5.00
2019-04-29T15:01:32.367Z,1.50
2019-04-29T15:04:16.709Z,2.00
2019-04-29T15:06:31.516Z,2.70
2019-04-29T15:09:00.362Z,1.80
2019-04-29T15:11:37.134Z,1.60
2019-04-29T15:14:10.270Z,2.77
2019-04-29T15:16:43.999Z,3.80
2019-04-29T15:20:25.272Z,3.37
2019-04-29T15:22:49.624Z,3.00
2019-04-29T15:25:20.958Z,4.60
2019-04-29T15:27:47.137Z,2.93
2019-04-29T15:30:15.618Z,2.10
2019-04-29T15:32:44.803Z,4.17
2019-04-29T15:35:13.249Z,3.33
2019-04-29T15:37:41.534Z,5.03
2019-04-29T15:40:10.344Z,1.90
2019-04-29T15:42:43.104Z,3.83
2019-04-29T15:45:07.345Z,5.90
2019-04-29T15:47:36.111Z,5.13
2019-04-29T15:50:18.138Z,4.93
2019-04-29T15:52:33.842Z,4.63
2019-04-29T15:55:02.673Z,3.50
2019-04-29T15:57:31.684Z,6.07
2019-04-29T16:00:03.763Z,5.23
2019-04-29T16:02:28.905Z,6.50
2019-04-29T16:05:04.697Z,5.23
2019-04-29T16:08:07.665Z,3.93
2019-04-29T16:10:40.753Z,3.97
2019-04-29T16:13:10.006Z,7.23
2019-04-29T16:15:38.620Z,5.53
2019-04-29T16:18:10.611Z,4.03
2019-04-29T16:20:35.828Z,5.50
2019-04-29T16:23:04.314Z,3.77
2019-04-29T16:25:39.961Z,5.20
2019-04-29T16:28:01.394Z,4.27
2019-04-29T16:30:31.771Z,4.97
2019-04-29T16:32:58.342Z,4.60
2019-04-29T16:35:34.249Z,5.03
2019-04-29T16:37:56.044Z,4.90
2019-04-29T16:40:24.814Z,5.43
2019-04-29T16:43:00.466Z,3.57
2019-04-29T16:45:34.337Z,4.37
2019-04-29T16:48:02.877Z,2.57
2019-04-29T16:50:31.477Z,5.10
2019-04-29T16:52:59.941Z,4.43
2019-04-29T16:55:28.790Z,6.60
2019-04-29T16:57:59.824Z,5.13
2019-04-29T17:00:26.981Z,6.40
2019-04-29T17:02:55.247Z,5.53
2019-04-29T17:05:24.346Z,7.43
2019-04-29T17:07:53.087Z,5.17
2019-04-29T17:10:25.973Z,4.00
2019-04-29T17:12:54.810Z,8.27
2019-04-29T17:15:25.365Z,5.07
2019-04-29T17:17:52.422Z,5.73
2019-04-29T17:20:20.887Z,5.43
2019-04-29T17:22:49.282Z,7.10
2019-04-29T17:25:17.935Z,6.03
2019-04-29T17:27:51.810Z,5.33
2019-04-29T17:32:42.242Z,5.93
2019-04-29T17:34:59.652Z,5.67
2019-04-29T17:37:26.478Z,6.57
2019-04-29T17:39:55.546Z,7.40
2019-04-29T17:42:24.595Z,6.90
2019-04-29T17:44:52.884Z,5.43
2019-04-29T17:47:32.506Z,4.30
2019-04-29T17:50:08.403Z,6.13
2019-04-29T17:52:35.377Z,4.17
2019-04-29T17:55:08.290Z,5.47
2019-04-29T17:57:42.562Z,5.30
2019-04-29T18:00:20.431Z,6.20
2019-04-29T18:02:57.272Z,5.33
2019-04-29T18:06:28.198Z,5.37
2019-04-29T18:08:59.227Z,4.73
2019-04-29T18:11:27.729Z,6.13
2019-04-29T18:13:57.036Z,6.10
2019-04-29T18:16:29.297Z,7.00
2019-04-29T18:19:06.769Z,6.33
2019-04-29T18:23:51.503Z,7.13
2019-04-29T18:26:25.722Z,5.77
2019-04-29T18:28:52.785Z,4.87
2019-04-29T18:31:21.791Z,5.10
2019-04-29T18:33:50.277Z,6.80
2019-04-29T18:36:23.510Z,6.07
2019-04-29T18:38:50.080Z,5.57
2019-04-29T18:41:24.261Z,4.80
2019-04-29T18:43:45.189Z,5.57
2019-04-29T18:46:14.875Z,5.60
2019-04-29T18:48:41.569Z,5.80
2019-04-29T18:51:10.045Z,6.33
2019-04-29T18:53:38.889Z,5.93
2019-04-29T18:56:07.669Z,7.37
2019-04-29T18:58:36.450Z,5.87
2019-04-29T19:01:05.427Z,5.70
2019-04-29T19:03:42.105Z,6.17
2019-04-29T19:06:11.316Z,6.93
2019-04-29T19:08:39.665Z,6.47
2019-04-29T19:11:08.140Z,3.53
2019-04-29T19:13:36.881Z,5.83
2019-04-29T19:16:10.239Z,6.37
2019-04-29T19:18:33.566Z,5.30
2019-04-29T19:21:02.092Z,5.93
2019-04-29T19:23:30.542Z,5.43
2019-04-29T19:25:59.352Z,5.67
2019-04-29T19:28:30.916Z,7.63
2019-04-29T19:31:02.900Z,5.70
2019-04-29T19:33:25.220Z,4.60
2019-04-29T19:35:52.977Z,5.13
2019-04-29T19:38:21.722Z,5.10
2019-04-29T19:40:50.654Z,5.90
2019-04-29T19:43:19.193Z,11.00
2019-04-29T19:45:49.075Z,7.53
2019-04-29T19:48:16.300Z,7.07
2019-04-29T19:50:45.218Z,4.97
2019-04-29T19:53:12.985Z,6.20
2019-04-29T19:55:43.090Z,10.67
2019-04-29T19:58:12.633Z,5.80
2019-04-29T20:00:39.780Z,3.97
2019-04-29T20:03:20.239Z,4.90
2019-04-29T20:05:40.666Z,4.50
2019-04-29T20:08:09.613Z,3.97
2019-04-29T20:10:46.208Z,4.40
2019-04-29T20:13:06.381Z,4.33
2019-04-29T20:15:37.749Z,3.27
2019-04-29T20:18:09.895Z,3.47
2019-04-29T20:21:08.484Z,4.60
2019-04-29T20:23:28.288Z,6.90
2019-04-29T20:26:05.773Z,5.57
2019-04-29T20:28:25.886Z,5.40
2019-04-29T20:30:55.591Z,4.57
2019-04-29T20:33:22.132Z,4.50
2019-04-29T20:35:50.652Z,5.13
2019-04-29T20:38:19.096Z,4.47
2019-04-29T20:40:48.049Z,6.13
2019-04-29T20:43:20.916Z,5.33
2019-04-29T20:45:45.873Z,3.17
2019-04-29T20:48:17.842Z,4.77
2019-04-29T20:50:47.727Z,5.43
2019-04-29T20:53:15.876Z,4.57
2019-04-29T20:55:46.108Z,4.97
